Impacts TAF Board INFO
FOR SITUATIONAL AWARENESS. NOT TO BE USED FOR FLIGHT PLANNING PURPOSES.
IDs:

KGWO - Greenwood/Leflore Ar, MS, US

Issued at 0520 UTC 17 Aug 2018
Updated at 0932 UTC 17 Aug 2018
Potential Impact None Slight Moderate High
Time<<17/22Z 17/23Z 18/00Z 18/01Z 18/02Z 18/03Z 18/04Z 18/05Z 18/06Z 18/07Z 18/08Z 18/09Z 18/10Z>>
Type PRVL PRVL PRVL PRVL PRVL PRVL PRVL PRVL
VIS 5 >6 >6 >6 >6 >6 >6 >6
CIG 50 50 50 50 50 50 50 50
Cover BKN BKN BKN BKN BKN BKN BKN BKN
FltCat MVFR VFR VFR VFR VFR VFR VFR VFR
WX -TSRA VCTS VCTS VCTS VCTS VCTS VCTS VCTS
WDir 220 180 180 180 180 180 180 180
WSpd 7 4 4 4 4 4 4 4
WGst -- -- -- -- -- -- -- --

Raw TAF
KGWO 170520Z 1706/1806 18007KT P6SM FEW025 SCT250
  FM171300 20006KT P6SM VCTS SCT030 BKN050CB BKN250
  FM171700 22007KT 5SM -TSRA BKN050CB BKN250
  FM172300 18004KT P6SM VCTS BKN050CB BKN250


METAR Board
Radar Display
Forecast Discussion

FOR SITUATIONAL AWARENESS. NOT TO BE USED FOR FLIGHT PLANNING PURPOSES.